Meteorología y climatología de Navarra
Datos de la estación - Meteo Navarra

Estación de Iñarbegi GN

Altitud 585 m.


Datos desde el 30/06/2020 hasta el 01/07/2020 en horario solar
Los datos son PROVISIONALES

Anterior Página 1 de 1 Siguiente Descargar: Formato para Excel 2000 o superior   Formato csv   Formato para OpenOffice Calc
Fecha Temperatura Humedad relativa Radiación global Insolación Precipitación Vel. viento 10 m Vel. viento 10 m Dir. viento 10 m
ºC % W/m² s l/m² m/s km/h º
30/06/2020 0:00 12.8 100 - - - - 0.0 - - - - - -
30/06/2020 0:10 12.8 100 - - - - 0.0 - - - - - -
30/06/2020 0:20 12.9 100 - - - - 0.0 - - - - - -
30/06/2020 0:30 12.7 100 - - - - 0.0 - - - - - -
30/06/2020 0:40 12.7 100 - - - - 0.0 - - - - - -
30/06/2020 0:50 12.7 100 - - - - 0.0 - - - - - -
30/06/2020 1:00 12.6 100 - - - - 0.0 - - - - - -
30/06/2020 1:10 12.3 100 - - - - 0.0 - - - - - -
30/06/2020 1:20 12.3 100 - - - - 0.0 - - - - - -
30/06/2020 1:30 12.3 100 - - - - 0.0 - - - - - -
30/06/2020 1:40 12.2 100 - - - - 0.0 - - - - - -
30/06/2020 1:50 12.3 100 - - - - 0.0 - - - - - -
30/06/2020 2:00 12.3 100 - - - - 0.0 - - - - - -
30/06/2020 2:10 12.2 100 - - - - 0.0 - - - - - -
30/06/2020 2:20 12.0 100 - - - - 0.0 - - - - - -
30/06/2020 2:30 12.0 100 - - - - 0.0 - - - - - -
30/06/2020 2:40 11.9 100 - - - - 0.0 - - - - - -
30/06/2020 2:50 11.9 100 - - - - 0.0 - - - - - -
30/06/2020 3:00 11.6 100 - - - - 0.0 - - - - - -
30/06/2020 3:10 11.5 100 - - - - 0.0 - - - - - -
30/06/2020 3:20 11.5 100 - - - - 0.0 - - - - - -
30/06/2020 3:30 11.6 100 - - - - 0.0 - - - - - -
30/06/2020 3:40 11.5 100 - - - - 0.0 - - - - - -
30/06/2020 3:50 11.3 100 - - - - 0.0 - - - - - -
30/06/2020 4:00 11.3 100 - - - - 0.0 - - - - - -
30/06/2020 4:10 11.4 100 - - - - 0.0 - - - - - -
30/06/2020 4:20 11.4 100 - - - - 0.0 - - - - - -
30/06/2020 4:30 11.6 100 - - - - 0.0 - - - - - -
30/06/2020 4:40 11.7 100 - - - - 0.0 - - - - - -
30/06/2020 4:50 11.9 100 - - - - 0.0 - - - - - -
30/06/2020 5:00 12.0 100 - - - - 0.0 - - - - - -
30/06/2020 5:10 11.4 100 - - - - 0.0 - - - - - -
30/06/2020 5:20 11.4 100 - - - - 0.0 - - - - - -
30/06/2020 5:30 11.5 100 - - - - 0.0 - - - - - -
30/06/2020 5:40 11.2 100 - - - - 0.0 - - - - - -
30/06/2020 5:50 11.3 100 - - - - 0.0 - - - - - -
30/06/2020 6:00 11.7 100 - - - - 0.0 - - - - - -
30/06/2020 6:10 12.2 100 - - - - 0.0 - - - - - -
30/06/2020 6:20 13.1 100 - - - - 0.0 - - - - - -
30/06/2020 6:30 13.8 100 - - - - 0.0 - - - - - -
30/06/2020 6:40 14.4 95 - - - - 0.0 - - - - - -
30/06/2020 6:50 14.6 92 - - - - 0.0 - - - - - -
30/06/2020 7:00 14.9 91 - - - - 0.0 - - - - - -
30/06/2020 7:10 15.1 90 - - - - 0.0 - - - - - -
30/06/2020 7:20 15.8 87 - - - - 0.0 - - - - - -
30/06/2020 7:30 16.2 83 - - - - 0.0 - - - - - -
30/06/2020 7:40 16.6 83 - - - - 0.0 - - - - - -
30/06/2020 7:50 17.2 82 - - - - 0.0 - - - - - -
30/06/2020 8:00 16.9 83 - - - - 0.0 - - - - - -
30/06/2020 8:10 16.7 84 - - - - 0.0 - - - - - -
30/06/2020 8:20 16.5 85 - - - - 0.0 - - - - - -
30/06/2020 8:30 17.2 83 - - - - 0.0 - - - - - -
30/06/2020 8:40 17.7 81 - - - - 0.0 - - - - - -
30/06/2020 8:50 18.5 80 - - - - 0.0 - - - - - -
30/06/2020 9:00 19.1 77 - - - - 0.0 - - - - - -
30/06/2020 9:10 19.3 75 - - - - 0.0 - - - - - -
30/06/2020 9:20 19.4 74 - - - - 0.0 - - - - - -
30/06/2020 9:30 19.7 72 - - - - 0.0 - - - - - -
30/06/2020 9:40 20.1 70 - - - - 0.0 - - - - - -
30/06/2020 9:50 20.8 67 - - - - 0.0 - - - - - -
30/06/2020 10:00 21.1 64 - - - - 0.0 - - - - - -
30/06/2020 10:10 21.4 61 - - - - 0.0 - - - - - -
30/06/2020 10:20 21.8 60 - - - - 0.0 - - - - - -
30/06/2020 10:30 22.3 60 - - - - 0.0 - - - - - -
30/06/2020 10:40 22.8 58 - - - - 0.0 - - - - - -
30/06/2020 10:50 23.1 55 - - - - 0.0 - - - - - -
30/06/2020 11:00 23.3 57 - - - - 0.0 - - - - - -
30/06/2020 11:10 23.6 52 - - - - 0.0 - - - - - -
30/06/2020 11:20 23.9 50 - - - - 0.0 - - - - - -
30/06/2020 11:30 24.2 49 - - - - 0.0 - - - - - -
30/06/2020 11:40 24.5 51 - - - - 0.0 - - - - - -
30/06/2020 11:50 24.5 53 - - - - 0.0 - - - - - -
30/06/2020 12:00 24.5 54 - - - - 0.0 - - - - - -
30/06/2020 12:10 24.6 56 - - - - 0.0 - - - - - -
30/06/2020 12:20 24.9 57 - - - - 0.0 - - - - - -
30/06/2020 12:30 25.0 58 - - - - 0.0 - - - - - -
30/06/2020 12:40 25.2 59 - - - - 0.0 - - - - - -
30/06/2020 12:50 25.3 61 - - - - 0.0 - - - - - -
30/06/2020 13:00 25.6 61 - - - - 0.0 - - - - - -
30/06/2020 13:10 25.3 63 - - - - 0.0 - - - - - -
30/06/2020 13:20 25.4 64 - - - - 0.0 - - - - - -
30/06/2020 13:30 25.5 65 - - - - 0.0 - - - - - -
30/06/2020 13:40 25.7 64 - - - - 0.0 - - - - - -
30/06/2020 13:50 25.4 65 - - - - 0.0 - - - - - -
30/06/2020 14:00 25.6 65 - - - - 0.0 - - - - - -
30/06/2020 14:10 25.6 64 - - - - 0.0 - - - - - -
30/06/2020 14:20 25.6 64 - - - - 0.0 - - - - - -
30/06/2020 14:30 25.4 64 - - - - 0.0 - - - - - -
30/06/2020 14:40 25.6 64 - - - - 0.0 - - - - - -
30/06/2020 14:50 25.4 65 - - - - 0.0 - - - - - -
30/06/2020 15:00 25.9 64 - - - - 0.0 - - - - - -
30/06/2020 15:10 25.7 63 - - - - 0.0 - - - - - -
30/06/2020 15:20 26.1 63 - - - - 0.0 - - - - - -
30/06/2020 15:30 25.9 62 - - - - 0.0 - - - - - -
30/06/2020 15:40 25.7 63 - - - - 0.0 - - - - - -
30/06/2020 15:50 25.9 63 - - - - 0.0 - - - - - -
30/06/2020 16:00 26.0 62 - - - - 0.0 - - - - - -
30/06/2020 16:10 25.7 63 - - - - 0.0 - - - - - -
30/06/2020 16:20 25.6 62 - - - - 0.0 - - - - - -
30/06/2020 16:30 25.4 64 - - - - 0.0 - - - - - -
30/06/2020 16:40 25.6 63 - - - - 0.0 - - - - - -
30/06/2020 16:50 25.5 64 - - - - 0.0 - - - - - -
30/06/2020 17:00 25.3 63 - - - - 0.0 - - - - - -
30/06/2020 17:10 25.1 64 - - - - 0.0 - - - - - -
30/06/2020 17:20 24.9 65 - - - - 0.0 - - - - - -
30/06/2020 17:30 24.6 65 - - - - 0.0 - - - - - -
30/06/2020 17:40 24.7 66 - - - - 0.0 - - - - - -
30/06/2020 17:50 24.6 65 - - - - 0.0 - - - - - -
30/06/2020 18:00 23.5 67 - - - - 0.0 - - - - - -
30/06/2020 18:10 23.4 66 - - - - 0.0 - - - - - -
30/06/2020 18:20 22.8 67 - - - - 0.0 - - - - - -
30/06/2020 18:30 22.1 68 - - - - 0.0 - - - - - -
30/06/2020 18:40 21.8 68 - - - - 0.0 - - - - - -
30/06/2020 18:50 21.5 70 - - - - 0.0 - - - - - -
30/06/2020 19:00 21.3 72 - - - - 0.0 - - - - - -
30/06/2020 19:10 21.3 74 - - - - 0.0 - - - - - -
30/06/2020 19:20 20.8 75 - - - - 0.0 - - - - - -
30/06/2020 19:30 20.8 74 - - - - 0.0 - - - - - -
30/06/2020 19:40 20.6 72 - - - - 0.0 - - - - - -
30/06/2020 19:50 20.9 69 - - - - 0.0 - - - - - -
30/06/2020 20:00 20.9 71 - - - - 0.2 - - - - - -
30/06/2020 20:10 19.6 81 - - - - 0.2 - - - - - -
30/06/2020 20:20 19.1 84 - - - - 0.0 - - - - - -
30/06/2020 20:30 19.3 83 - - - - 0.0 - - - - - -
30/06/2020 20:40 18.7 87 - - - - 0.0 - - - - - -
30/06/2020 20:50 18.5 90 - - - - 0.0 - - - - - -
30/06/2020 21:00 18.4 90 - - - - 0.0 - - - - - -
30/06/2020 21:10 18.1 93 - - - - 0.0 - - - - - -
30/06/2020 21:20 18.0 93 - - - - 0.0 - - - - - -
30/06/2020 21:30 17.8 94 - - - - 0.0 - - - - - -
30/06/2020 21:40 18.2 89 - - - - 0.0 - - - - - -
30/06/2020 21:50 18.5 86 - - - - 0.0 - - - - - -
30/06/2020 22:00 17.8 91 - - - - 0.0 - - - - - -
30/06/2020 22:10 17.5 93 - - - - 0.0 - - - - - -
30/06/2020 22:20 17.3 94 - - - - 0.0 - - - - - -
30/06/2020 22:30 17.1 96 - - - - 0.0 - - - - - -
30/06/2020 22:40 17.0 97 - - - - 0.0 - - - - - -
30/06/2020 22:50 16.8 97 - - - - 0.0 - - - - - -
30/06/2020 23:00 16.9 100 - - - - 0.0 - - - - - -
30/06/2020 23:10 16.5 99 - - - - 0.0 - - - - - -
30/06/2020 23:20 16.3 100 - - - - 0.0 - - - - - -
30/06/2020 23:30 16.0 100 - - - - 0.0 - - - - - -
30/06/2020 23:40 16.0 100 - - - - 0.0 - - - - - -
30/06/2020 23:50 16.0 100 - - - - 0.0 - - - - - -
Anterior Página 1 de 1 Siguiente

NOTA: Tipo de datos según el color:
   - Valores diarios o 10 minutos correctos
   - Valores diarios calculados a partir de un número de datos 10 minutos menor que 144 y mayor que 120, o de un número de datos semihorarios menor que 48 y mayor que 40 (caso de las estaciones de INTIA y del Ministerio)
   - Valores diez minutos estimados


Contacto        Enlaces        Aviso legal